Aérodrome :
LOGIN :

S'inscrire | Disclaimer

   EN    FR    IT 

 










Légende :    VFR   VFR Marginal   IFR   IFR Intensif   IFR Très Intensif
Visi : 
Plafond : 
>= 8 km
>= 3000ft
5 à 8 km
1000 à 3000 ft
1500m à 5 km
500 à 1000 ft
800 à 1500m
200 à 500 ft
< 800m
< 200 ft
Symboles :   Orages  Brouillard  Fortes neiges  Fortes précipitations  Vent > 20 kt
SIGMETs :   Divers  Orages  Givrage  Turbulence  Onde Orograph.  Cendres Volcan.







- Altitude de l'aérodrome : 56 ft


LPOV - Ovar Air Base

DERNIER METAR :
  • 210000Z 15003KT 7000 BKN007 OVC015 11/10 Q1032

METARs EXPIRÉS :
  • 202300Z 16004KT 5000 -DZ BR BKN007 OVC015 11/10 Q1032
  • 202200Z 17005KT 4000 -DZ BR BKN007 OVC015 11/10 Q1032
  • 202100Z 15004KT 4000 -DZ BR BKN007 OVC015 11/09 Q1032

TAF TAF LPOV
Valide du 21 à 00h jusqu'au 22 à 00h UTC


202309Z 2100/2124 VRB02KT 5000 BR BKN007 BKN015
PROB40 2100/2110 0100 -DZ FG BKN002
BECMG 2111/2113 9999 NSW FEW007 BKN012
PROB40
TEMPO 2113/2118 5000 -RADZ BR SCT005 BKN012
BECMG 2118/2121 5000 BR BKN007
PROB40 2121/2124 0400 FG BKN002
Pas de NOTAMs connus pour ce terrain.



MET'MAP, la Météo Aéronautique d'un coup d'oeil ! - Copyright ORBIFLY Décembre 2007 - Disclaimer

ORBIFLY MET'MAP TEAM :

Programmation & Développement : Alexandra Zaïnal
Conception & Développement : Baudouin d'Aumeries
Co-Programmation & Développement : Marc-Olivier Méhu
Soutien technique & logistique : Manuel Goepfert

Contact : metmap@orbifly.com




SOURCES & CREDITS :

   NOAA